Time;durP1;ratioP1;P1;durP2;ratioP2;P2;SDS_P1;SDS_P2;PMS_P1;PMS_P2;Temp;Humidity;BMP_temperature;BMP_pressure;BME280_temperature;BME280_humidity;BME280_pressure;Samples;Min_cycle;Max_cycle;Signal;HPM_P1;HPM_P2
2023/12/03 00:01:57;;;;;;;43.50;21.60;;;1.70;99.90;;;1.85;70.64;100821.78;5016452;28;20050;-86
2023/12/03 00:04:27;;;;;;;44.83;21.15;;;1.70;99.90;;;1.89;70.39;100815.25;4999088;28;20081;-86
2023/12/03 00:06:54;;;;;;;41.47;20.75;;;1.70;99.90;;;1.91;69.92;100820.38;5017293;28;20050;-86
2023/12/03 00:09:23;;;;;;;43.00;20.17;;;1.80;99.90;;;1.92;69.59;100820.25;4999227;28;20037;-86
2023/12/03 00:11:51;;;;;;;46.60;22.00;;;1.80;99.90;;;1.93;70.00;100819.25;4998924;28;20038;-86
2023/12/03 00:14:18;;;;;;;45.00;20.98;;;1.80;99.90;;;1.95;70.02;100827.00;4998910;28;20045;-87
2023/12/03 00:16:46;;;;;;;47.97;22.17;;;1.80;99.90;;;1.92;70.03;100827.31;5017995;28;20041;-86
2023/12/03 00:19:14;;;;;;;45.38;21.67;;;1.80;99.90;;;1.96;70.06;100831.31;5035065;28;20045;-86
2023/12/03 00:21:43;;;;;;;43.75;21.65;;;1.80;99.90;;;1.95;70.14;100822.59;5018479;28;20125;-86
2023/12/03 00:24:11;;;;;;;46.83;21.02;;;1.80;99.90;;;1.96;70.09;100818.97;4983139;28;20044;-86
2023/12/03 00:26:42;;;;;;;44.05;20.15;;;1.80;99.90;;;1.89;69.87;100817.88;5015839;28;20049;-86
2023/12/03 00:29:10;;;;;;;41.92;21.15;;;1.80;99.90;;;1.92;70.37;100817.59;4998841;28;20057;-86
2023/12/03 00:31:38;;;;;;;42.03;19.75;;;1.80;99.90;;;1.96;69.92;100818.16;4998863;28;20132;-86
2023/12/03 00:34:06;;;;;;;41.72;21.20;;;1.80;99.90;;;1.92;70.08;100812.34;4999038;28;20053;-86
2023/12/03 00:36:34;;;;;;;46.72;21.67;;;1.80;99.90;;;1.91;69.86;100812.50;4982658;28;20056;-86
2023/12/03 00:39:03;;;;;;;44.40;22.02;;;1.80;99.90;;;1.82;70.19;100823.91;5036011;28;20045;-86
2023/12/03 00:41:31;;;;;;;42.22;20.20;;;1.70;99.90;;;1.81;70.61;100815.19;5019484;28;20063;-86
2023/12/03 00:43:59;;;;;;;44.45;21.65;;;1.70;99.90;;;1.84;70.17;100822.75;5001961;28;20045;-86
2023/12/03 00:46:26;;;;;;;42.90;21.23;;;1.70;99.90;;;1.87;70.08;100824.28;5003349;28;20095;-86
2023/12/03 00:48:54;;;;;;;42.15;21.08;;;1.70;99.90;;;1.82;70.44;100824.72;4999851;28;20054;-86
2023/12/03 00:51:22;;;;;;;43.88;21.23;;;1.70;99.90;;;1.85;70.36;100829.66;5016886;28;20073;-86
2023/12/03 00:53:51;;;;;;;46.00;21.63;;;1.70;99.90;;;1.88;70.54;100832.00;4999690;28;20056;-86
2023/12/03 00:56:20;;;;;;;47.40;21.67;;;1.70;99.90;;;1.89;70.51;100831.03;5015885;28;20042;-86
2023/12/03 00:58:47;;;;;;;47.78;21.50;;;1.70;99.90;;;1.90;70.49;100826.59;4999216;28;20041;-86
2023/12/03 01:01:15;;;;;;;42.75;21.63;;;1.70;99.90;;;1.84;70.29;100829.81;5017156;28;20156;-86
2023/12/03 01:03:43;;;;;;;41.72;19.60;;;1.70;99.90;;;1.82;70.25;100829.16;4999033;28;20042;-86
2023/12/03 01:06:11;;;;;;;44.38;22.10;;;1.70;99.90;;;1.75;70.47;100834.13;4982788;28;20449;-86
2023/12/03 01:08:40;;;;;;;44.00;20.40;;;1.70;99.90;;;1.67;71.12;100834.06;5014073;28;20049;-86
2023/12/03 01:11:08;;;;;;;44.92;21.00;;;1.60;99.90;;;1.78;71.03;100844.38;5019657;28;20128;-86
2023/12/03 01:13:37;;;;;;;48.70;22.92;;;1.70;99.90;;;1.83;70.90;100843.94;5036776;28;20053;-86
2023/12/03 01:16:15;;;;;;;47.63;23.02;;;1.70;99.90;;;1.76;70.84;100848.97;5036788;28;20049;-86
2023/12/03 01:18:42;;;;;;;48.47;22.65;;;1.70;99.90;;;1.72;71.19;100864.19;5018300;28;20103;-86
2023/12/03 01:21:10;;;;;;;47.25;22.60;;;1.60;99.90;;;1.70;71.38;100862.66;5035941;28;20485;-86
2023/12/03 01:23:38;;;;;;;48.03;22.98;;;1.70;99.90;;;1.82;71.30;100864.16;5018901;28;20050;-86
2023/12/03 01:26:07;;;;;;;53.05;24.58;;;1.70;99.90;;;1.77;71.53;100869.03;5035568;28;20044;-86
2023/12/03 01:28:35;;;;;;;44.95;21.85;;;1.70;99.90;;;1.82;71.57;100869.41;5018220;28;20041;-86
2023/12/03 01:31:04;;;;;;;51.47;24.52;;;1.70;99.90;;;1.79;71.68;100877.59;5038840;28;20060;-86
2023/12/03 01:33:33;;;;;;;51.00;24.40;;;1.70;99.90;;;1.71;71.98;100880.13;5019374;28;20143;-86
2023/12/03 01:36:03;;;;;;;50.92;23.63;;;1.70;99.90;;;1.79;72.03;100875.78;5036075;28;20049;-86
2023/12/03 01:38:31;;;;;;;51.85;24.02;;;1.70;99.90;;;1.86;72.01;100870.78;5023268;28;20042;-86
2023/12/03 01:40:58;;;;;;;49.47;23.23;;;1.80;99.90;;;1.90;71.83;100866.88;5002487;28;20096;-86
2023/12/03 01:43:27;;;;;;;47.13;22.83;;;1.80;99.90;;;1.93;71.70;100869.22;5018863;28;20045;-86
2023/12/03 01:45:54;;;;;;;57.15;25.02;;;1.80;99.90;;;1.97;71.76;100867.97;5027437;28;20037;-86
2023/12/03 01:48:25;;;;;;;52.35;24.83;;;1.80;99.90;;;1.93;71.68;100876.28;5043357;28;20053;-86
2023/12/03 01:50:53;;;;;;;53.90;23.92;;;1.80;99.90;;;1.97;71.79;100886.38;5042428;28;20049;-86
2023/12/03 01:53:21;;;;;;;54.17;24.63;;;1.80;99.90;;;2.04;71.74;100879.53;4990402;28;20046;-86
2023/12/03 01:55:50;;;;;;;50.60;24.00;;;1.90;99.90;;;2.07;71.51;100888.97;5006888;28;20076;-86
2023/12/03 01:58:17;;;;;;;49.53;24.13;;;1.90;99.90;;;2.08;71.59;100884.53;5014374;28;20113;-86
2023/12/03 02:00:46;;;;;;;54.72;25.23;;;1.80;99.90;;;2.11;71.74;100892.97;5007904;28;20054;-86
2023/12/03 02:03:19;;;;;;;54.80;24.55;;;1.90;99.90;;;2.10;71.80;100885.19;5007702;28;20081;-86
2023/12/03 02:06:04;;;;;;;50.13;23.65;;;1.90;99.90;;;2.12;71.69;100893.78;5017676;28;20053;-86
2023/12/03 02:08:32;;;;;;;53.85;24.92;;;1.90;99.90;;;2.15;71.69;100886.44;5045170;28;20103;-86
2023/12/03 02:11:01;;;;;;;52.67;25.95;;;2.00;99.90;;;2.08;71.79;100889.78;5048613;28;20056;-86
2023/12/03 02:13:31;;;;;;;54.72;24.92;;;1.90;99.90;;;2.09;71.71;100894.91;5022648;28;20057;-86
2023/12/03 02:15:59;;;;;;;55.95;26.17;;;1.90;99.90;;;2.09;71.92;100892.25;5047794;28;20046;-86
2023/12/03 02:18:27;;;;;;;57.47;25.30;;;1.90;99.90;;;2.11;71.81;100894.78;5047674;28;20046;-86
2023/12/03 02:20:57;;;;;;;56.13;24.85;;;2.00;99.90;;;2.12;71.87;100901.69;5042966;28;20053;-86
2023/12/03 02:23:29;;;;;;;51.08;23.15;;;2.00;99.90;;;2.14;72.28;100912.88;5037118;28;20048;-86
2023/12/03 02:25:56;;;;;;;57.47;26.48;;;2.00;99.90;;;2.14;72.09;100908.44;5019993;28;20053;-86
2023/12/03 02:28:24;;;;;;;55.53;25.17;;;2.00;99.90;;;2.17;72.19;100909.97;4986091;28;20049;-86
2023/12/03 02:30:52;;;;;;;52.20;24.40;;;2.00;99.90;;;2.13;72.33;100917.31;5035490;28;20092;-86
2023/12/03 02:33:22;;;;;;;55.55;25.33;;;2.00;99.90;;;2.01;72.74;100914.06;5035376;28;20045;-86
2023/12/03 02:35:51;;;;;;;59.70;25.90;;;1.90;99.90;;;2.03;72.94;100914.72;5032929;28;20114;-86
2023/12/03 02:38:19;;;;;;;52.08;23.88;;;1.90;99.90;;;2.02;72.94;100923.59;5022089;28;20133;-86
2023/12/03 02:40:48;;;;;;;54.35;26.38;;;1.90;99.90;;;1.99;73.30;100910.72;5001752;28;20057;-86
2023/12/03 02:43:16;;;;;;;57.25;25.40;;;1.90;99.90;;;2.00;73.29;100915.03;5020368;28;20050;-86
2023/12/03 02:45:44;;;;;;;53.22;25.25;;;1.90;99.90;;;2.00;73.49;100909.78;5019789;28;20038;-86
2023/12/03 02:48:14;;;;;;;56.35;26.10;;;1.90;99.90;;;2.04;73.45;100918.19;5002061;28;20042;-86
2023/12/03 02:50:41;;;;;;;51.95;24.20;;;1.90;99.90;;;2.09;73.76;100910.69;5019880;28;20520;-86
2023/12/03 02:53:09;;;;;;;55.75;25.83;;;2.00;99.90;;;2.11;73.30;100906.13;5020131;28;20057;-86
2023/12/03 02:55:37;;;;;;;54.75;24.70;;;2.00;99.90;;;2.04;73.74;100916.38;5020318;28;20057;-86
2023/12/03 02:58:06;;;;;;;55.58;24.27;;;2.00;99.90;;;1.99;74.03;100907.25;5018720;28;20053;-86
2023/12/03 03:00:34;;;;;;;54.13;25.30;;;2.00;99.90;;;2.04;74.09;100900.59;5019124;28;20421;-86
2023/12/03 03:03:02;;;;;;;61.05;26.13;;;2.00;99.90;;;2.10;74.22;100899.22;5001914;28;20104;-86
2023/12/03 03:05:33;;;;;;;52.75;25.48;;;2.00;99.90;;;2.12;74.09;100901.69;5002386;28;20076;-86
2023/12/03 03:08:00;;;;;;;55.40;25.87;;;2.00;99.90;;;2.14;73.66;100903.19;5019594;28;20116;-86
2023/12/03 03:10:28;;;;;;;57.97;26.58;;;2.00;99.90;;;2.09;73.66;100901.97;5002749;28;20053;-86
2023/12/03 03:12:56;;;;;;;54.60;25.40;;;2.00;99.90;;;2.12;73.77;100907.78;5019175;28;20411;-86
2023/12/03 03:15:25;;;;;;;57.28;25.63;;;2.00;99.90;;;2.12;73.45;100904.31;5001852;28;20076;-86
2023/12/03 03:17:53;;;;;;;55.15;26.58;;;2.00;99.90;;;2.02;73.95;100915.69;5001632;28;20046;-86
2023/12/03 03:20:22;;;;;;;60.85;26.73;;;1.90;99.90;;;1.97;74.05;100910.03;5001529;28;20560;-86
2023/12/03 03:22:51;;;;;;;52.35;25.17;;;1.90;99.90;;;2.00;74.42;100915.03;5030761;28;20081;-86
2023/12/03 03:25:18;;;;;;;57.13;25.83;;;1.90;99.90;;;2.10;74.16;100915.00;5039647;28;20072;-86
2023/12/03 03:27:46;;;;;;;54.97;24.98;;;2.00;99.90;;;2.02;74.10;100920.97;5021965;28;20095;-86
2023/12/03 03:30:14;;;;;;;52.08;26.10;;;1.90;99.90;;;2.02;74.11;100915.69;5039049;28;20041;-86
2023/12/03 03:32:44;;;;;;;54.42;26.45;;;1.90;99.90;;;2.06;73.95;100919.72;5021319;28;20042;-86
2023/12/03 03:35:12;;;;;;;55.60;24.50;;;1.90;99.90;;;2.07;74.29;100931.06;5018486;28;20050;-86
2023/12/03 03:37:40;;;;;;;52.20;24.13;;;1.90;99.90;;;2.14;74.14;100936.56;5003217;28;20038;-86
2023/12/03 03:40:10;;;;;;;54.42;25.10;;;2.00;99.90;;;2.17;73.91;100938.91;5005362;28;20052;-86
2023/12/03 03:42:37;;;;;;;55.53;26.42;;;2.00;99.90;;;2.21;73.46;100929.75;5001589;28;20532;-86
2023/12/03 03:45:07;;;;;;;54.08;25.80;;;2.00;99.90;;;2.10;73.77;100940.44;5001187;28;20100;-86
2023/12/03 03:47:36;;;;;;;49.45;25.13;;;2.00;99.90;;;2.15;73.61;100930.31;5017659;28;20049;-86
2023/12/03 03:50:06;;;;;;;52.58;24.77;;;2.00;99.90;;;1.99;73.99;100931.75;5001243;28;20076;-86
2023/12/03 03:52:34;;;;;;;55.13;25.48;;;1.90;99.90;;;2.01;73.93;100929.84;5018982;28;20057;-86
2023/12/03 03:55:01;;;;;;;51.90;24.55;;;1.90;99.90;;;2.05;73.94;100933.84;5001120;28;20054;-86
2023/12/03 03:57:29;;;;;;;46.78;23.15;;;1.90;99.90;;;2.13;74.11;100932.28;5018926;28;20050;-86
2023/12/03 03:59:57;;;;;;;49.63;23.27;;;2.00;99.90;;;2.17;73.75;100931.84;5018170;28;20054;-86
2023/12/03 04:02:24;;;;;;;51.60;24.52;;;2.00;99.90;;;2.16;73.53;100935.44;5001136;28;20096;-86
2023/12/03 04:04:52;;;;;;;50.30;24.27;;;2.10;99.90;;;2.17;73.70;100936.28;5017966;28;20057;-86
2023/12/03 04:07:21;;;;;;;46.85;23.35;;;2.00;99.90;;;2.21;73.50;100938.47;5017123;28;20045;-86
2023/12/03 04:09:49;;;;;;;48.80;23.52;;;2.10;99.90;;;2.22;73.19;100942.75;5035389;28;20038;-86
2023/12/03 04:12:18;;;;;;;49.30;23.73;;;2.10;99.90;;;2.16;73.37;100947.78;5019945;28;20052;-86
2023/12/03 04:14:46;;;;;;;48.17;23.90;;;2.00;99.90;;;2.17;73.21;100946.81;5020070;28;20517;-86
2023/12/03 04:17:14;;;;;;;48.50;21.58;;;2.00;99.90;;;2.21;73.45;100956.06;5020057;28;20103;-86
2023/12/03 04:19:42;;;;;;;49.75;23.08;;;2.00;99.90;;;2.22;73.20;100948.03;5002456;28;20046;-86
2023/12/03 04:22:09;;;;;;;47.10;22.65;;;2.10;99.90;;;2.23;73.48;100952.31;5000051;28;20116;-86
2023/12/03 04:24:38;;;;;;;45.47;21.40;;;2.10;99.90;;;2.26;73.07;100951.19;5017363;28;20054;-86
2023/12/03 04:27:06;;;;;;;46.95;21.90;;;2.10;99.90;;;2.13;73.26;100953.31;5016504;28;20069;-86
2023/12/03 04:29:34;;;;;;;48.40;22.33;;;2.00;99.90;;;2.13;73.17;100955.94;5016463;28;20042;-86
2023/12/03 04:32:01;;;;;;;45.20;21.67;;;2.00;99.90;;;2.15;73.32;100954.84;5008056;28;20048;-86
2023/12/03 04:34:29;;;;;;;41.63;20.95;;;2.00;99.90;;;2.21;73.04;100948.16;5038048;28;20132;-86
2023/12/03 04:36:57;;;;;;;42.53;21.38;;;2.10;99.90;;;2.23;73.01;100956.75;5036262;28;20042;-86
2023/12/03 04:39:25;;;;;;;42.10;19.92;;;2.10;99.90;;;2.21;73.13;100948.16;5037196;28;20041;-86
2023/12/03 04:41:54;;;;;;;44.90;20.58;;;2.10;99.90;;;2.27;72.96;100947.59;5037003;28;20091;-86
2023/12/03 04:44:22;;;;;;;41.83;19.70;;;2.20;99.90;;;2.30;72.81;100948.13;5019593;28;20053;-86
2023/12/03 04:46:50;;;;;;;45.75;20.90;;;2.10;99.90;;;2.35;72.82;100945.06;5035525;28;20054;-86
2023/12/03 04:49:18;;;;;;;43.65;20.33;;;2.20;99.90;;;2.23;72.97;100951.47;5018550;28;20558;-86
2023/12/03 04:51:45;;;;;;;43.10;21.58;;;2.20;99.90;;;2.19;73.16;100943.03;5019602;28;20053;-86
2023/12/03 04:54:14;;;;;;;41.15;20.10;;;2.10;99.90;;;2.21;72.89;100948.16;5037231;28;20061;-86
2023/12/03 04:56:43;;;;;;;41.58;19.77;;;2.10;99.90;;;2.21;72.89;100943.75;5018782;28;20045;-86
2023/12/03 04:59:12;;;;;;;40.83;18.92;;;2.10;99.90;;;2.21;73.11;100942.91;5033977;28;20056;-86
2023/12/03 05:01:39;;;;;;;42.20;20.27;;;2.00;99.90;;;2.23;72.96;100947.03;5036218;28;20069;-86
2023/12/03 05:04:07;;;;;;;42.38;20.15;;;2.10;99.90;;;2.25;72.97;100939.84;5037084;28;20060;-86
2023/12/03 05:06:35;;;;;;;38.25;19.30;;;2.10;99.90;;;2.29;73.09;100945.63;5036936;28;20156;-86
2023/12/03 05:09:03;;;;;;;40.65;18.20;;;2.10;99.90;;;2.32;72.97;100943.53;5034887;28;20051;-86
2023/12/03 05:11:31;;;;;;;37.67;18.98;;;2.20;99.90;;;2.22;72.71;100944.56;5002775;28;20510;-86
2023/12/03 05:13:58;;;;;;;39.03;18.80;;;2.10;99.90;;;2.21;73.06;100943.75;5035183;28;20111;-86
2023/12/03 05:16:27;;;;;;;41.17;19.50;;;2.10;99.90;;;2.17;72.98;100950.25;5019678;28;20050;-86
2023/12/03 05:18:55;;;;;;;40.05;19.27;;;2.00;99.90;;;2.21;72.65;100950.81;5036332;28;20095;-86
2023/12/03 05:21:23;;;;;;;39.00;18.75;;;2.10;99.90;;;2.23;72.70;100959.38;5037373;28;20054;-86
2023/12/03 05:23:51;;;;;;;37.97;18.48;;;2.10;99.90;;;2.25;72.83;100954.81;5003036;28;20065;-86
2023/12/03 05:26:18;;;;;;;36.20;17.90;;;2.10;99.90;;;2.19;72.28;100958.81;5029144;28;20519;-86
2023/12/03 05:28:46;;;;;;;33.88;17.75;;;2.10;99.90;;;2.20;72.69;100960.50;5017518;28;20045;-86
2023/12/03 05:31:15;;;;;;;33.08;17.35;;;2.00;99.90;;;2.23;72.30;100964.63;5017528;28;20046;-86
2023/12/03 05:33:45;;;;;;;37.85;17.98;;;2.10;99.90;;;2.27;72.52;100964.19;5017710;28;20042;-86
2023/12/03 05:36:22;;;;;;;34.10;17.08;;;2.10;99.90;;;2.26;72.41;100967.81;5000228;28;20050;-86
2023/12/03 05:38:52;;;;;;;33.78;16.63;;;2.10;99.90;;;2.27;72.51;100976.53;5017423;28;20121;-86
2023/12/03 05:41:20;;;;;;;34.92;17.00;;;2.10;99.90;;;2.24;72.31;100975.00;4983307;28;20100;-86
2023/12/03 05:43:50;;;;;;;33.80;16.15;;;2.20;99.90;;;2.24;72.39;100974.19;4999434;28;20072;-86
2023/12/03 05:46:19;;;;;;;34.97;16.58;;;2.10;99.90;;;2.21;72.15;100974.50;5017819;28;20050;-86
2023/12/03 05:48:48;;;;;;;34.13;17.33;;;2.10;99.90;;;2.24;72.48;100976.81;5017615;28;20048;-86
2023/12/03 05:51:15;;;;;;;35.13;17.20;;;2.10;99.90;;;2.21;72.26;100974.50;4999134;28;20490;-86
2023/12/03 05:53:44;;;;;;;33.90;16.35;;;2.10;99.90;;;2.24;72.23;100979.44;5017425;28;20124;-86
2023/12/03 05:56:13;;;;;;;35.75;16.73;;;2.10;99.90;;;2.28;71.97;100975.56;5024085;28;20049;-86
2023/12/03 05:58:42;;;;;;;33.88;16.85;;;2.10;99.90;;;2.29;71.82;100972.78;5036954;28;20046;-86
2023/12/03 06:01:09;;;;;;;35.45;16.27;;;2.20;99.90;;;2.24;71.78;100979.44;5035210;28;20053;-86
2023/12/03 06:03:37;;;;;;;30.35;15.82;;;2.20;99.90;;;2.24;71.91;100979.44;5038294;28;20065;-86
2023/12/03 06:06:08;;;;;;;34.80;17.05;;;2.10;99.90;;;2.14;71.93;100989.16;5036235;28;20052;-86
2023/12/03 06:08:36;;;;;;;31.25;16.17;;;2.10;99.90;;;2.01;72.19;100987.69;5037154;28;20061;-86
2023/12/03 06:11:04;;;;;;;31.05;15.40;;;2.00;99.90;;;2.00;72.37;100990.47;5024341;28;20382;-86
2023/12/03 06:13:32;;;;;;;32.65;15.65;;;2.00;99.90;;;1.97;72.80;100990.75;5039688;28;20053;-86
2023/12/03 06:16:10;;;;;;;36.60;17.17;;;2.00;99.90;;;2.01;72.62;100984.25;5020535;28;20092;-86
2023/12/03 06:18:37;;;;;;;34.95;16.80;;;2.00;99.90;;;2.00;72.92;100993.94;5022275;28;20498;-86
2023/12/03 06:21:09;;;;;;;34.67;15.70;;;2.00;99.90;;;2.05;72.90;100994.34;5003790;28;20095;-86
2023/12/03 06:23:37;;;;;;;32.60;16.25;;;2.00;99.90;;;2.06;72.37;101001.25;4987821;28;20050;-86
2023/12/03 06:26:06;;;;;;;30.65;15.52;;;2.00;99.90;;;2.01;71.92;101006.13;5010241;28;20034;-86
2023/12/03 06:28:37;;;;;;;33.53;15.57;;;2.00;99.90;;;1.91;72.32;101007.13;5041926;28;20046;-86
2023/12/03 06:31:06;;;;;;;30.10;16.38;;;1.90;99.90;;;1.94;72.90;101012.91;5042234;28;20050;-86
2023/12/03 06:33:34;;;;;;;35.20;16.25;;;1.90;99.90;;;1.98;72.69;101011.66;5039650;28;20042;-86
2023/12/03 06:36:02;;;;;;;33.97;16.23;;;1.90;99.90;;;1.91;72.34;101007.13;5033436;28;20046;-86
2023/12/03 06:38:31;;;;;;;28.80;14.75;;;1.90;99.90;;;1.93;72.45;101007.78;5022455;28;20053;-86
2023/12/03 06:40:59;;;;;;;29.73;15.30;;;1.90;99.90;;;1.93;72.82;101007.78;5004664;28;20042;-86
2023/12/03 06:43:26;;;;;;;37.17;16.33;;;1.90;99.90;;;1.93;72.25;101011.25;5003161;28;20100;-86
2023/12/03 06:45:54;;;;;;;33.97;16.00;;;1.90;99.90;;;1.99;72.65;101015.94;5005222;28;20412;-86
2023/12/03 06:48:22;;;;;;;27.95;15.30;;;1.90;99.90;;;2.05;72.52;101012.75;5018557;28;20050;-90
2023/12/03 06:50:49;;;;;;;28.27;15.20;;;2.00;99.90;;;1.97;72.17;101023.16;5035235;28;20512;-90
2023/12/03 06:53:17;;;;;;;26.92;14.13;;;2.00;99.90;;;2.02;72.45;101017.47;5018255;28;20116;-90
2023/12/03 06:55:46;;;;;;;29.85;14.60;;;2.00;99.90;;;1.99;72.43;101017.75;5011309;28;20045;-90
2023/12/03 06:58:14;;;;;;;27.08;14.00;;;2.00;99.90;;;2.00;72.08;101020.25;4989015;28;20041;-90
2023/12/03 07:00:42;;;;;;;28.65;14.27;;;2.00;99.90;;;1.96;72.30;101018.88;5016097;28;20046;-90
2023/12/03 07:03:10;;;;;;;26.13;13.70;;;1.90;99.90;;;1.99;72.39;101020.38;5016459;28;20136;-90
2023/12/03 07:05:38;;;;;;;28.25;14.52;;;1.90;99.90;;;1.90;72.23;101024.66;4998770;28;20140;-89
2023/12/03 07:08:06;;;;;;;28.55;14.55;;;1.90;99.90;;;1.91;72.81;101026.34;4998559;28;20053;-86
2023/12/03 07:10:34;;;;;;;27.58;14.25;;;2.10;99.90;;;1.90;72.92;101024.66;5006326;28;20041;-90
2023/12/03 07:13:03;;;;;;;27.55;14.02;;;1.90;99.90;;;1.92;72.55;101035.91;5017070;28;20048;-90
2023/12/03 07:15:31;;;;;;;33.22;15.57;;;1.90;99.90;;;1.90;72.57;101040.44;5015509;28;20050;-89
2023/12/03 07:17:59;;;;;;;28.08;14.05;;;1.90;99.90;;;1.89;72.70;101035.34;5016375;28;20056;-89
2023/12/03 07:20:27;;;;;;;33.08;15.05;;;1.90;99.90;;;1.98;72.94;101042.38;5014426;28;20042;-88
2023/12/03 07:22:55;;;;;;;28.10;14.05;;;2.10;99.90;;;2.04;72.66;101044.44;5025154;28;20099;-86
2023/12/03 07:25:23;;;;;;;28.20;13.88;;;2.00;99.90;;;2.08;72.59;101039.75;5004123;28;20108;-85
2023/12/03 07:27:50;;;;;;;27.90;14.43;;;2.00;99.90;;;2.02;72.29;101047.22;5035016;28;20053;-86
2023/12/03 07:30:20;;;;;;;28.17;14.32;;;2.00;99.90;;;1.96;71.90;101055.69;5054212;28;20042;-86
2023/12/03 07:32:47;;;;;;;25.52;13.07;;;2.00;99.90;;;2.04;72.41;101055.78;5003499;28;20042;-85
2023/12/03 07:35:15;;;;;;;27.35;13.75;;;2.00;99.90;;;2.03;71.83;101056.78;5000372;28;20092;-89
2023/12/03 07:37:43;;;;;;;27.00;14.23;;;2.00;99.90;;;2.15;72.21;101067.13;5010962;28;20047;-89
2023/12/03 07:40:11;;;;;;;29.40;14.23;;;2.00;99.90;;;2.19;71.64;101055.34;5037639;28;20060;-89
2023/12/03 07:42:38;;;;;;;29.83;13.95;;;2.00;99.90;;;2.12;71.46;101064.78;5055197;28;20049;-89
2023/12/03 07:45:07;;;;;;;26.17;13.60;;;2.00;99.90;;;2.08;71.54;101074.75;5037692;28;20052;-88
2023/12/03 07:47:36;;;;;;;29.35;14.68;;;2.00;99.90;;;2.04;71.18;101074.22;5034592;28;20073;-89
2023/12/03 07:50:05;;;;;;;30.17;14.75;;;2.00;99.90;;;2.01;71.78;101077.13;5037661;28;20036;-89
2023/12/03 07:52:33;;;;;;;32.20;14.80;;;2.00;99.90;;;2.03;71.45;101083.06;5031147;28;20045;-89
2023/12/03 07:55:00;;;;;;;27.73;13.55;;;1.90;99.90;;;1.95;71.51;101075.06;5034679;28;20099;-89
2023/12/03 07:57:29;;;;;;;25.58;14.30;;;1.90;99.90;;;1.92;71.41;101080.59;5035074;28;20100;-89
2023/12/03 07:59:58;;;;;;;30.08;14.63;;;1.90;99.90;;;1.99;71.61;101081.69;5033664;28;20048;-90
2023/12/03 08:02:25;;;;;;;28.73;15.00;;;1.90;99.90;;;1.94;71.72;101081.28;5038054;28;20139;-86
2023/12/03 08:04:56;;;;;;;29.15;14.15;;;1.90;99.90;;;1.89;71.32;101082.69;5038303;28;20135;-86
2023/12/03 08:07:24;;;;;;;28.52;13.98;;;1.90;99.90;;;1.94;71.24;101083.09;5031135;28;20037;-86
2023/12/03 08:09:54;;;;;;;26.13;13.88;;;1.90;99.90;;;2.05;71.20;101088.22;5014217;28;20124;-86
2023/12/03 08:12:26;;;;;;;25.63;12.80;;;2.00;99.90;;;2.13;70.96;101080.44;5032115;28;20045;-87
2023/12/03 08:14:54;;;;;;;25.58;13.55;;;2.00;99.90;;;2.15;70.69;101081.13;5054341;28;20037;-86
2023/12/03 08:17:21;;;;;;;25.67;12.85;;;2.00;99.90;;;2.20;70.73;101089.44;5018626;28;20494;-86
2023/12/03 08:19:49;;;;;;;25.65;13.13;;;2.00;99.90;;;2.23;70.42;101091.75;5017799;28;20034;-86
2023/12/03 08:22:18;;;;;;;26.00;12.80;;;2.10;99.90;;;2.28;70.02;101086.06;5000563;28;20050;-86
2023/12/03 08:24:46;;;;;;;29.45;14.05;;;2.10;99.90;;;2.31;69.77;101085.81;5017975;28;20041;-86
2023/12/03 08:27:15;;;;;;;29.40;14.55;;;2.10;99.90;;;2.27;69.50;101092.31;5036267;28;20041;-86
2023/12/03 08:29:44;;;;;;;27.05;14.05;;;2.10;99.90;;;2.28;69.75;101088.72;5009282;28;20044;-86
2023/12/03 08:32:12;;;;;;;26.98;14.68;;;2.10;99.90;;;2.26;69.20;101088.84;5056546;28;20053;-87
2023/12/03 08:34:40;;;;;;;25.10;13.52;;;2.10;99.90;;;2.19;69.28;101092.19;5037087;28;20269;-87
2023/12/03 08:37:08;;;;;;;26.67;13.77;;;2.10;99.90;;;2.23;69.46;101098.84;5041120;28;20099;-88
2023/12/03 08:39:37;;;;;;;27.60;15.25;;;2.10;99.90;;;1.98;69.16;101095.81;5017391;28;20132;-86
2023/12/03 08:42:06;;;;;;;25.70;12.98;;;2.00;99.90;;;2.09;69.99;101088.75;5000930;28;20501;-86
2023/12/03 08:44:36;;;;;;;25.70;13.27;;;2.00;99.90;;;2.11;68.96;101089.44;5004641;28;20042;-85
2023/12/03 08:47:04;;;;;;;28.10;14.27;;;2.00;99.90;;;2.05;68.89;101090.84;5028700;28;20128;-85
2023/12/03 08:49:33;;;;;;;24.58;12.70;;;2.00;99.90;;;2.01;68.97;101089.47;5024754;28;20113;-85
2023/12/03 08:52:01;;;;;;;25.75;13.05;;;1.90;99.90;;;2.05;69.23;101088.22;4993064;28;20052;-85
2023/12/03 08:54:30;;;;;;;26.98;13.43;;;2.00;99.90;;;2.14;68.81;101092.59;5042902;28;20052;-85
2023/12/03 08:56:59;;;;;;;27.77;13.77;;;2.00;99.90;;;2.09;68.69;101088.75;5043041;28;20045;-85
2023/12/03 08:59:27;;;;;;;27.83;14.57;;;2.00;99.90;;;2.11;68.33;101087.66;5025467;28;20054;-85
2023/12/03 09:01:55;;;;;;;25.63;13.25;;;2.00;99.90;;;2.01;68.66;101089.47;5042197;28;20072;-85
2023/12/03 09:04:23;;;;;;;24.67;12.55;;;1.90;99.90;;;1.91;68.94;101092.09;5042652;28;20053;-85
2023/12/03 09:06:51;;;;;;;26.73;13.50;;;1.90;99.90;;;2.05;69.05;101094.31;5043004;28;20049;-85
2023/12/03 09:09:19;;;;;;;26.85;13.65;;;2.00;99.90;;;1.95;68.47;101095.25;5025321;28;20095;-85
2023/12/03 09:11:47;;;;;;;23.70;12.90;;;2.00;99.90;;;1.96;68.64;101089.88;5025406;28;20061;-85
2023/12/03 09:14:17;;;;;;;25.17;13.30;;;1.90;99.90;;;2.11;69.03;101092.09;5025003;28;20524;-85
2023/12/03 09:16:46;;;;;;;29.23;14.35;;;2.00;99.90;;;2.05;68.17;101098.75;5025354;28;20073;-85
2023/12/03 09:19:14;;;;;;;27.40;12.82;;;2.00;99.90;;;2.12;68.43;101093.72;5042729;28;20163;-85
2023/12/03 09:21:42;;;;;;;26.35;13.75;;;2.10;99.90;;;2.02;68.15;101101.63;5024965;28;20048;-85
2023/12/03 09:24:10;;;;;;;27.45;14.07;;;2.10;99.90;;;1.97;68.17;101096.78;5042458;28;20120;-85
2023/12/03 09:26:37;;;;;;;27.83;13.75;;;2.00;99.90;;;2.00;68.44;101093.03;5025505;28;20041;-85
2023/12/03 09:33:48;;;;;;;25.10;13.10;;;2.10;99.90;;;2.02;68.72;101096.38;5017747;28;20137;-85
2023/12/03 09:36:26;;;;;;;24.58;13.25;;;2.00;99.90;;;2.15;68.30;101101.31;5000461;28;20484;-85
2023/12/03 09:42:50;;;;;;;27.75;13.85;;;2.20;99.90;;;1.94;67.22;101098.88;5014397;28;20124;-85
2023/12/03 09:45:33;;;;;;;27.05;13.95;;;2.10;99.90;;;1.95;68.00;101108.41;5022994;28;20117;-85
2023/12/03 09:48:05;;;;;;;26.33;13.05;;;2.00;99.90;;;1.98;67.39;101111.59;4990553;28;20473;-85
2023/12/03 09:50:37;;;;;;;28.10;13.75;;;2.10;99.90;;;1.92;67.79;101111.34;4991731;28;20417;-85
2023/12/03 09:53:13;;;;;;;27.02;13.00;;;2.10;99.90;;;1.99;68.08;101113.25;4975996;28;20046;-85
2023/12/03 09:55:42;;;;;;;25.48;13.43;;;2.10;99.90;;;2.00;67.73;101119.34;5024213;28;20050;-85
2023/12/03 09:58:11;;;;;;;26.13;12.65;;;2.00;99.90;;;2.09;67.84;101117.69;5007926;28;20050;-85
2023/12/03 10:00:39;;;;;;;25.52;12.75;;;2.20;99.90;;;2.11;67.85;101119.22;5024373;28;20053;-85
2023/12/03 10:03:09;;;;;;;27.42;13.30;;;2.20;99.90;;;2.08;67.16;101123.91;5024471;28;20065;-85
2023/12/03 10:05:39;;;;;;;30.20;13.85;;;2.20;99.90;;;1.94;67.68;101130.44;5024139;28;20046;-85
2023/12/03 10:08:07;;;;;;;27.58;13.82;;;2.20;99.90;;;1.99;67.65;101134.31;5028502;28;20053;-85
2023/12/03 10:10:42;;;;;;;30.02;14.27;;;2.10;99.90;;;2.00;67.45;101114.94;5046221;28;20045;-85
2023/12/03 10:13:16;;;;;;;26.98;12.80;;;2.10;99.90;;;1.91;67.50;101131.56;5029541;28;20049;-85
2023/12/03 10:15:44;;;;;;;26.67;13.13;;;2.20;99.90;;;1.89;67.29;101125.59;5045093;28;20424;-85
2023/12/03 10:18:15;;;;;;;28.73;14.35;;;2.10;99.90;;;1.78;67.01;101117.84;5028425;28;20050;-85
2023/12/03 10:20:47;;;;;;;;;;;2.00;99.90;;;1.80;67.40;101134.28;5029921;28;20041;-85
2023/12/03 10:23:18;;;;;;;30.63;14.50;;;2.00;99.90;;;1.73;67.55;101125.31;5046897;28;19928;-86
2023/12/03 10:25:48;;;;;;;28.95;14.15;;;2.00;99.90;;;1.76;68.17;101127.69;5044806;28;20044;-85
2023/12/03 10:28:36;;;;;;;30.05;14.48;;;2.00;99.90;;;1.87;67.82;101122.28;5029082;28;20049;-85